createdAt,value
2022-07-29T00:02:02.358Z,21.90
2022-07-29T00:04:30.140Z,21.80
2022-07-29T00:06:58.258Z,21.73
2022-07-29T00:09:26.296Z,21.70
2022-07-29T00:11:58.010Z,21.69
2022-07-29T00:14:26.039Z,21.68
2022-07-29T00:16:56.677Z,21.70
2022-07-29T00:19:25.146Z,21.70
2022-07-29T00:21:56.488Z,21.72
2022-07-29T00:24:24.453Z,21.69
2022-07-29T00:26:52.031Z,21.62
2022-07-29T00:29:35.351Z,21.55
2022-07-29T00:32:04.133Z,21.55
2022-07-29T00:34:51.299Z,21.59
2022-07-29T00:37:18.932Z,21.57
2022-07-29T00:39:46.634Z,21.57
2022-07-29T00:42:14.242Z,21.54
2022-07-29T00:44:43.990Z,21.52
2022-07-29T00:47:12.692Z,21.45
2022-07-29T00:49:42.732Z,21.52
2022-07-29T00:52:12.491Z,21.41
2022-07-29T00:54:44.554Z,21.36
2022-07-29T00:57:13.911Z,21.28
2022-07-29T00:59:42.792Z,21.27
2022-07-29T01:02:10.541Z,21.25
2022-07-29T01:04:38.941Z,21.25
2022-07-29T01:07:07.969Z,21.25
2022-07-29T01:09:45.247Z,21.20
2022-07-29T01:12:18.431Z,21.18
2022-07-29T01:14:49.892Z,21.17
2022-07-29T01:17:52.671Z,21.08
2022-07-29T01:21:06.314Z,21.20
2022-07-29T01:24:00.193Z,21.19
2022-07-29T01:26:50.184Z,21.21
2022-07-29T01:29:20.890Z,21.22
2022-07-29T01:32:21.554Z,21.25
2022-07-29T01:35:06.257Z,21.26
2022-07-29T01:38:10.971Z,21.19
2022-07-29T01:40:54.144Z,21.18
2022-07-29T01:43:28.271Z,21.13
2022-07-29T01:46:03.748Z,21.12
2022-07-29T01:48:46.389Z,21.13
2022-07-29T01:51:21.996Z,21.08
2022-07-29T01:54:32.767Z,21.07
2022-07-29T01:57:02.948Z,20.97
2022-07-29T01:59:31.561Z,20.97
2022-07-29T02:02:02.050Z,20.95
2022-07-29T02:04:32.781Z,20.98
2022-07-29T02:07:04.069Z,20.90
2022-07-29T02:09:36.638Z,20.87
2022-07-29T02:12:08.549Z,20.86
2022-07-29T02:14:44.843Z,20.88
2022-07-29T02:17:18.783Z,20.82
2022-07-29T02:19:48.642Z,20.81
2022-07-29T02:22:17.890Z,20.79
2022-07-29T02:24:47.344Z,20.79
2022-07-29T02:27:16.432Z,20.79
2022-07-29T02:29:47.563Z,20.73
2022-07-29T02:32:17.289Z,20.77
2022-07-29T02:34:45.874Z,20.75
2022-07-29T02:37:14.645Z,20.65
2022-07-29T02:39:45.037Z,20.67
2022-07-29T02:42:16.881Z,20.59
2022-07-29T02:44:44.913Z,20.60
2022-07-29T02:47:20.578Z,20.59
2022-07-29T02:50:09.338Z,20.52
2022-07-29T02:52:46.551Z,20.45
2022-07-29T02:55:33.134Z,20.55
2022-07-29T02:58:08.999Z,20.57
2022-07-29T03:00:40.345Z,20.54
2022-07-29T03:03:13.475Z,20.52
2022-07-29T03:05:41.688Z,20.57
2022-07-29T03:08:13.022Z,20.67
2022-07-29T03:10:45.666Z,20.69
2022-07-29T03:13:15.800Z,20.72
2022-07-29T03:15:44.719Z,20.73
2022-07-29T03:18:12.637Z,20.78
2022-07-29T03:20:40.727Z,20.75
2022-07-29T03:23:09.543Z,20.81
2022-07-29T03:25:37.920Z,20.83
2022-07-29T03:28:05.967Z,20.86
2022-07-29T03:30:34.118Z,20.89
2022-07-29T03:33:04.843Z,20.79
2022-07-29T03:35:41.552Z,20.66
2022-07-29T03:38:09.328Z,20.75
2022-07-29T03:40:43.496Z,20.76
2022-07-29T03:43:13.659Z,20.88
2022-07-29T03:45:45.631Z,20.84
2022-07-29T03:48:17.548Z,20.93
2022-07-29T03:50:47.065Z,21.06
2022-07-29T03:53:19.349Z,21.04
2022-07-29T03:55:52.213Z,21.08
2022-07-29T03:58:22.416Z,21.03
2022-07-29T04:00:51.268Z,20.99
2022-07-29T04:03:19.084Z,20.99
2022-07-29T04:05:58.426Z,21.03
2022-07-29T04:08:28.109Z,21.07
2022-07-29T04:10:56.054Z,21.01
2022-07-29T04:13:26.534Z,21.07
2022-07-29T04:15:54.955Z,21.11
2022-07-29T04:18:22.606Z,21.10
2022-07-29T04:20:53.308Z,21.14
2022-07-29T04:23:21.032Z,21.17
2022-07-29T04:25:48.736Z,21.15
2022-07-29T04:28:16.414Z,21.15
2022-07-29T04:30:48.777Z,21.16
2022-07-29T04:33:17.667Z,21.13
2022-07-29T04:35:49.972Z,21.14
2022-07-29T04:38:19.142Z,21.11
2022-07-29T04:40:47.069Z,21.14
2022-07-29T04:43:16.755Z,21.24
2022-07-29T04:45:50.507Z,21.26
2022-07-29T04:48:33.849Z,21.28
2022-07-29T04:51:01.980Z,21.39
2022-07-29T04:53:31.622Z,21.39
2022-07-29T04:55:59.318Z,21.38
2022-07-29T04:58:27.451Z,21.39
2022-07-29T05:00:55.172Z,21.47
2022-07-29T05:03:23.792Z,21.53
2022-07-29T05:05:51.887Z,21.60
2022-07-29T05:08:20.387Z,21.63
2022-07-29T05:10:50.304Z,21.73
2022-07-29T05:13:22.615Z,21.76
2022-07-29T05:15:50.996Z,21.84
2022-07-29T05:18:18.981Z,21.88
2022-07-29T05:20:46.567Z,21.90
2022-07-29T05:23:17.464Z,22.01
2022-07-29T05:25:45.226Z,22.11
2022-07-29T05:28:13.167Z,22.18
2022-07-29T05:30:41.357Z,22.21
2022-07-29T05:33:09.312Z,22.26
2022-07-29T05:36:00.314Z,22.27
2022-07-29T05:38:29.066Z,22.31
2022-07-29T05:40:59.605Z,22.34
2022-07-29T05:43:31.227Z,22.50
2022-07-29T05:45:59.416Z,22.62
2022-07-29T05:48:27.158Z,22.79
2022-07-29T05:50:55.763Z,22.83
2022-07-29T05:53:24.160Z,22.90
2022-07-29T05:55:52.950Z,22.90
2022-07-29T05:58:21.858Z,22.97
2022-07-29T06:01:00.238Z,23.02
2022-07-29T06:03:28.781Z,23.17
2022-07-29T06:05:56.438Z,23.26
2022-07-29T06:08:24.567Z,23.40
2022-07-29T06:10:54.756Z,23.56
2022-07-29T06:13:22.935Z,23.64
2022-07-29T06:15:53.631Z,23.67
2022-07-29T06:18:24.805Z,23.76
2022-07-29T06:20:53.332Z,23.91
2022-07-29T06:23:21.923Z,23.97
2022-07-29T06:25:49.950Z,24.00
2022-07-29T06:28:18.578Z,24.02
2022-07-29T06:30:46.327Z,24.09
2022-07-29T06:33:19.008Z,24.16
2022-07-29T06:35:53.192Z,24.22
2022-07-29T06:38:31.140Z,24.28
2022-07-29T06:41:01.082Z,24.27
2022-07-29T06:43:32.575Z,24.18
2022-07-29T06:46:02.521Z,24.06
2022-07-29T06:48:30.935Z,24.00
2022-07-29T06:50:58.603Z,24.08
2022-07-29T06:53:26.537Z,24.33
2022-07-29T06:55:54.110Z,24.47
2022-07-29T06:58:21.757Z,24.54
2022-07-29T07:01:04.188Z,24.68
2022-07-29T07:03:35.075Z,24.72
2022-07-29T07:06:02.996Z,24.66
2022-07-29T07:08:30.679Z,24.76
2022-07-29T07:10:59.011Z,24.79
2022-07-29T07:13:36.800Z,24.63
2022-07-29T07:16:05.831Z,24.56
2022-07-29T07:18:35.807Z,24.75
2022-07-29T07:21:06.113Z,24.75
2022-07-29T07:23:33.929Z,24.79
2022-07-29T07:26:01.478Z,24.83
2022-07-29T07:28:29.250Z,24.99
2022-07-29T07:31:00.067Z,25.03
2022-07-29T07:33:27.977Z,25.10
2022-07-29T07:35:55.843Z,25.28
2022-07-29T07:38:24.750Z,25.44
2022-07-29T07:40:52.646Z,25.38
2022-07-29T07:43:20.617Z,25.23
2022-07-29T07:45:49.313Z,25.25
2022-07-29T07:48:17.139Z,25.32
2022-07-29T07:50:45.682Z,25.55
2022-07-29T07:53:13.457Z,25.71
2022-07-29T07:58:36.322Z,25.79
2022-07-29T08:01:04.140Z,25.80
2022-07-29T08:03:34.979Z,25.97
2022-07-29T08:06:04.901Z,26.03
2022-07-29T08:08:32.644Z,26.01
2022-07-29T08:11:08.342Z,26.06
2022-07-29T08:13:38.844Z,26.18
2022-07-29T08:16:14.452Z,26.19
2022-07-29T08:18:44.237Z,26.05
2022-07-29T08:21:17.117Z,26.13
2022-07-29T08:24:07.427Z,26.19
2022-07-29T08:26:36.995Z,26.24
2022-07-29T08:29:04.910Z,26.27
2022-07-29T08:31:33.152Z,26.09
2022-07-29T08:34:01.089Z,25.98
2022-07-29T08:36:28.939Z,26.04
2022-07-29T08:38:58.011Z,26.06
2022-07-29T08:41:26.745Z,26.23
2022-07-29T08:43:54.711Z,26.26
2022-07-29T08:46:23.334Z,26.26
2022-07-29T08:48:51.734Z,26.30
2022-07-29T08:51:20.958Z,26.57
2022-07-29T08:53:51.596Z,26.72
2022-07-29T08:56:20.580Z,26.54
2022-07-29T08:58:51.675Z,26.70
2022-07-29T09:01:36.417Z,26.56
2022-07-29T09:04:14.648Z,26.67
2022-07-29T09:06:47.594Z,26.88
2022-07-29T09:09:16.171Z,26.93
2022-07-29T09:11:45.293Z,27.15
2022-07-29T09:14:15.036Z,27.35
2022-07-29T09:16:53.612Z,27.44
2022-07-29T09:19:35.888Z,27.07
2022-07-29T09:22:07.507Z,27.12
2022-07-29T09:24:42.790Z,27.09
2022-07-29T09:27:22.794Z,27.18
2022-07-29T09:30:11.629Z,27.32
2022-07-29T09:33:01.155Z,27.35
2022-07-29T09:35:30.980Z,27.30
2022-07-29T09:37:58.806Z,26.98
2022-07-29T09:40:29.508Z,26.98
2022-07-29T09:42:58.378Z,26.82
2022-07-29T09:45:33.680Z,26.92
2022-07-29T09:48:15.208Z,27.19
2022-07-29T09:50:45.438Z,27.35
2022-07-29T09:53:31.466Z,27.49
2022-07-29T09:56:03.433Z,27.45
2022-07-29T09:58:36.761Z,27.35
2022-07-29T10:01:05.073Z,27.39
2022-07-29T10:03:33.544Z,27.39
2022-07-29T10:06:14.590Z,27.26
2022-07-29T10:08:49.122Z,27.29
2022-07-29T10:11:20.945Z,27.29
2022-07-29T10:13:49.724Z,27.32
2022-07-29T10:16:17.977Z,27.30
2022-07-29T10:18:47.840Z,27.42
2022-07-29T10:21:34.517Z,27.45
2022-07-29T10:24:06.196Z,27.31
2022-07-29T10:26:34.167Z,27.48
2022-07-29T10:29:05.378Z,27.39
2022-07-29T10:31:51.211Z,27.57
2022-07-29T10:34:33.183Z,27.75
2022-07-29T10:37:55.067Z,28.10
2022-07-29T10:40:54.992Z,27.78
2022-07-29T10:43:31.892Z,27.79
2022-07-29T10:46:01.667Z,27.75
2022-07-29T10:48:30.174Z,27.73
2022-07-29T10:50:59.994Z,28.05
2022-07-29T10:53:51.973Z,27.88
2022-07-29T10:56:41.366Z,27.67
2022-07-29T10:59:21.638Z,27.74
2022-07-29T11:01:53.590Z,27.61
2022-07-29T11:04:47.099Z,27.50
2022-07-29T11:07:17.573Z,27.71
2022-07-29T11:09:46.622Z,28.15
2022-07-29T11:12:37.816Z,28.42
2022-07-29T11:15:18.114Z,27.98
2022-07-29T11:17:55.357Z,27.90
2022-07-29T11:20:45.626Z,27.93
2022-07-29T11:23:28.248Z,28.21
2022-07-29T11:26:10.941Z,28.25
2022-07-29T11:28:44.599Z,28.13
2022-07-29T11:31:13.321Z,28.12
2022-07-29T11:33:56.147Z,28.22
2022-07-29T11:36:27.994Z,28.13
2022-07-29T11:39:37.140Z,28.25
2022-07-29T11:42:18.105Z,28.22
2022-07-29T11:45:08.930Z,28.25
2022-07-29T11:50:49.435Z,28.48
2022-07-29T11:53:17.360Z,28.81
2022-07-29T11:55:55.592Z,28.45
2022-07-29T11:58:25.058Z,28.15
2022-07-29T12:00:55.680Z,28.16
2022-07-29T12:03:34.960Z,28.24
2022-07-29T12:06:15.123Z,28.36
2022-07-29T12:07:03.783Z,28.45
2022-07-29T12:08:45.088Z,28.15
2022-07-29T12:11:21.428Z,28.22
2022-07-29T12:13:51.899Z,28.46
2022-07-29T12:16:25.318Z,28.59
2022-07-29T12:18:58.789Z,28.86
2022-07-29T12:21:52.241Z,28.82
2022-07-29T12:24:26.909Z,28.96
2022-07-29T12:26:57.888Z,28.60
2022-07-29T12:29:35.203Z,28.69
2022-07-29T12:32:14.767Z,28.55
2022-07-29T12:34:47.377Z,28.45
2022-07-29T12:37:16.037Z,28.23
2022-07-29T12:39:44.231Z,28.22
2022-07-29T12:42:18.497Z,28.25
2022-07-29T12:44:51.270Z,28.38
2022-07-29T12:47:20.705Z,28.64
2022-07-29T12:49:51.330Z,28.67
2022-07-29T12:52:28.562Z,28.56
2022-07-29T12:54:56.637Z,28.45
2022-07-29T12:57:25.069Z,28.46
2022-07-29T13:00:11.735Z,28.36
2022-07-29T13:02:42.425Z,28.30
2022-07-29T13:05:13.789Z,28.43
2022-07-29T13:07:54.936Z,28.56
2022-07-29T13:10:24.912Z,28.82
2022-07-29T13:13:12.113Z,28.86
2022-07-29T13:15:42.087Z,28.75
2022-07-29T13:18:31.746Z,28.49
2022-07-29T13:21:13.046Z,28.56
2022-07-29T13:23:43.695Z,28.57
2022-07-29T13:26:17.371Z,28.79
2022-07-29T13:28:45.051Z,29.07
2022-07-29T13:31:13.863Z,28.92
2022-07-29T13:33:42.000Z,28.64
2022-07-29T13:36:09.622Z,28.56
2022-07-29T13:38:37.311Z,28.67
2022-07-29T13:41:05.758Z,28.75
2022-07-29T13:43:34.691Z,28.91
2022-07-29T13:46:02.650Z,28.82
2022-07-29T13:48:30.332Z,28.65
2022-07-29T13:50:58.005Z,28.76
2022-07-29T13:53:27.018Z,28.86
2022-07-29T13:55:56.166Z,28.75
2022-07-29T13:58:23.988Z,28.67
2022-07-29T14:00:51.708Z,28.65
2022-07-29T14:03:19.634Z,28.63
2022-07-29T14:05:47.290Z,28.44
2022-07-29T14:08:15.152Z,28.46
2022-07-29T14:10:42.917Z,28.23
2022-07-29T14:13:24.325Z,28.20
2022-07-29T14:15:52.649Z,28.15
2022-07-29T14:18:22.789Z,28.14
2022-07-29T14:20:52.110Z,28.14
2022-07-29T14:23:20.972Z,28.22
2022-07-29T14:25:49.710Z,28.41
2022-07-29T14:28:17.940Z,28.49
2022-07-29T14:30:45.561Z,28.21
2022-07-29T14:33:14.370Z,28.33
2022-07-29T14:35:42.062Z,28.43
2022-07-29T14:38:09.794Z,28.39
2022-07-29T14:40:37.584Z,28.33
2022-07-29T14:43:05.248Z,28.54
2022-07-29T14:45:32.950Z,28.72
2022-07-29T14:48:01.416Z,28.84
2022-07-29T14:50:29.896Z,28.63
2022-07-29T14:53:01.985Z,28.65
2022-07-29T14:55:29.946Z,28.54
2022-07-29T14:58:06.020Z,28.34
2022-07-29T15:00:37.947Z,28.33
2022-07-29T15:03:06.900Z,28.41
2022-07-29T15:05:40.901Z,28.55
2022-07-29T15:08:10.815Z,28.66
2022-07-29T15:10:40.360Z,28.87
2022-07-29T15:13:08.663Z,28.83
2022-07-29T15:15:38.024Z,29.20
2022-07-29T15:18:06.019Z,29.31
2022-07-29T15:20:33.583Z,28.95
2022-07-29T15:23:05.440Z,28.73
2022-07-29T15:25:37.282Z,28.55
2022-07-29T15:28:09.707Z,28.08
2022-07-29T15:30:41.778Z,27.74
2022-07-29T15:33:10.580Z,27.79
2022-07-29T15:35:40.451Z,28.24
2022-07-29T15:38:10.602Z,29.18
2022-07-29T15:40:42.291Z,29.66
2022-07-29T15:43:15.426Z,29.34
2022-07-29T15:46:06.771Z,29.64
2022-07-29T15:48:39.783Z,29.75
2022-07-29T15:51:07.657Z,29.41
2022-07-29T15:53:35.413Z,28.94
2022-07-29T15:56:03.487Z,28.92
2022-07-29T15:58:31.371Z,29.05
2022-07-29T16:00:59.059Z,29.26
2022-07-29T16:03:27.087Z,28.94
2022-07-29T16:05:54.754Z,28.04
2022-07-29T16:08:23.291Z,27.63
2022-07-29T16:10:54.661Z,27.43
2022-07-29T16:13:23.388Z,27.33
2022-07-29T16:16:02.210Z,27.17
2022-07-29T16:18:34.928Z,26.81
2022-07-29T16:21:02.622Z,26.43
2022-07-29T16:23:30.871Z,26.33
2022-07-29T16:26:00.895Z,26.24
2022-07-29T16:28:30.757Z,26.24
2022-07-29T16:30:58.886Z,26.09
2022-07-29T16:33:28.630Z,26.10
2022-07-29T16:36:18.457Z,26.03
2022-07-29T16:38:48.139Z,25.90
2022-07-29T16:41:15.947Z,25.84
2022-07-29T16:43:43.580Z,25.77
2022-07-29T16:46:14.681Z,25.72
2022-07-29T16:48:46.651Z,25.63
2022-07-29T16:51:14.665Z,25.61
2022-07-29T16:53:42.537Z,25.53
2022-07-29T16:56:12.900Z,25.52
2022-07-29T16:58:43.787Z,25.44
2022-07-29T17:01:12.861Z,25.43
2022-07-29T17:04:03.263Z,25.43
2022-07-29T17:06:32.215Z,25.40
2022-07-29T17:08:59.877Z,25.41
2022-07-29T17:11:53.924Z,25.44
2022-07-29T17:14:15.625Z,25.47
2022-07-29T17:16:44.205Z,25.48
2022-07-29T17:19:35.534Z,25.40
2022-07-29T17:22:15.459Z,25.32
2022-07-29T17:24:48.987Z,25.23
2022-07-29T17:27:17.523Z,25.20
2022-07-29T17:29:45.672Z,25.15
2022-07-29T17:32:13.610Z,25.08
2022-07-29T17:34:42.820Z,25.03
2022-07-29T17:37:12.113Z,24.99
2022-07-29T17:39:41.361Z,24.97
2022-07-29T17:42:10.656Z,24.92
2022-07-29T17:44:39.602Z,24.88
2022-07-29T17:47:10.704Z,24.85
2022-07-29T17:49:45.612Z,24.78
2022-07-29T17:52:13.737Z,24.75
2022-07-29T17:54:41.255Z,24.72
2022-07-29T17:57:08.973Z,24.64
2022-07-29T17:59:36.906Z,24.59
2022-07-29T18:02:04.732Z,24.53
2022-07-29T18:04:37.146Z,24.50
2022-07-29T18:07:06.204Z,24.43
2022-07-29T18:09:33.747Z,24.40
2022-07-29T18:12:01.607Z,24.37
2022-07-29T18:14:29.820Z,24.34
2022-07-29T18:16:57.678Z,24.28
2022-07-29T18:19:25.542Z,24.23
2022-07-29T18:21:54.891Z,24.15
2022-07-29T18:24:25.773Z,24.14
2022-07-29T18:26:56.550Z,24.06
2022-07-29T18:29:25.090Z,24.04
2022-07-29T18:31:55.328Z,23.96
2022-07-29T18:34:23.126Z,23.95
2022-07-29T18:36:51.342Z,23.93
2022-07-29T18:39:21.203Z,23.87
2022-07-29T18:41:51.397Z,23.85
2022-07-29T18:44:25.366Z,23.78
2022-07-29T18:46:53.493Z,23.73
2022-07-29T18:49:25.109Z,23.68
2022-07-29T18:51:52.837Z,23.66
2022-07-29T18:54:20.582Z,23.64
2022-07-29T18:56:48.904Z,23.64
2022-07-29T18:59:19.658Z,23.59
2022-07-29T19:01:49.010Z,23.56
2022-07-29T19:04:17.577Z,23.54
2022-07-29T19:06:47.758Z,23.48
2022-07-29T19:09:16.039Z,23.43
2022-07-29T19:11:44.944Z,23.41
2022-07-29T19:14:12.626Z,23.40
2022-07-29T19:16:44.410Z,23.40
2022-07-29T19:19:14.655Z,23.38
2022-07-29T19:21:42.859Z,23.34
2022-07-29T19:24:15.205Z,23.32
2022-07-29T19:26:47.101Z,23.28
2022-07-29T19:29:15.741Z,23.24
2022-07-29T19:31:43.770Z,23.20
2022-07-29T19:34:13.260Z,23.16
2022-07-29T19:36:41.930Z,23.11
2022-07-29T19:39:09.618Z,23.05
2022-07-29T19:41:38.261Z,22.97
2022-07-29T19:44:08.189Z,22.85
2022-07-29T19:46:39.565Z,22.78
2022-07-29T19:49:07.912Z,22.74
2022-07-29T19:51:37.277Z,22.76
2022-07-29T19:54:06.028Z,22.74
2022-07-29T19:56:33.794Z,22.65
2022-07-29T19:59:02.015Z,22.64
2022-07-29T20:01:32.247Z,22.65
2022-07-29T20:04:00.106Z,22.66
2022-07-29T20:06:27.951Z,22.64
2022-07-29T20:09:00.675Z,22.62
2022-07-29T20:11:32.402Z,22.56
2022-07-29T20:14:05.436Z,22.58
2022-07-29T20:16:33.114Z,22.53
2022-07-29T20:19:03.723Z,22.50
2022-07-29T20:21:34.063Z,22.49
2022-07-29T20:24:08.852Z,22.48
2022-07-29T20:26:38.026Z,22.44
2022-07-29T20:29:05.698Z,22.48
2022-07-29T20:31:33.492Z,22.45
2022-07-29T20:34:01.986Z,22.41
2022-07-29T20:36:30.719Z,22.42
2022-07-29T20:39:00.100Z,22.42
2022-07-29T20:41:29.145Z,22.35
2022-07-29T20:43:57.959Z,22.45
2022-07-29T20:46:25.646Z,22.45
2022-07-29T20:48:53.767Z,22.42
2022-07-29T20:51:21.705Z,22.45
2022-07-29T20:53:50.642Z,22.45
2022-07-29T20:56:18.593Z,22.47
2022-07-29T20:58:48.211Z,22.50
2022-07-29T21:01:15.992Z,22.57
2022-07-29T21:03:44.001Z,22.57
2022-07-29T21:06:11.684Z,22.54
2022-07-29T21:08:40.926Z,22.54
2022-07-29T21:11:08.855Z,22.52
2022-07-29T21:13:41.026Z,22.46
2022-07-29T21:16:18.737Z,22.37
2022-07-29T21:18:47.370Z,22.37
2022-07-29T21:21:16.296Z,22.39
2022-07-29T21:23:46.086Z,22.35
2022-07-29T21:26:13.742Z,22.32
2022-07-29T21:28:43.930Z,22.26
2022-07-29T21:31:16.754Z,22.22
2022-07-29T21:33:46.827Z,22.22
2022-07-29T21:36:46.824Z,22.21
2022-07-29T21:39:07.305Z,22.13
2022-07-29T21:41:35.105Z,22.12
2022-07-29T21:44:02.683Z,22.07
2022-07-29T21:46:30.403Z,22.06
2022-07-29T21:48:58.337Z,21.99
2022-07-29T21:51:26.718Z,21.97
2022-07-29T21:53:54.472Z,21.95
2022-07-29T21:56:26.347Z,21.87
2022-07-29T21:58:56.017Z,21.82
2022-07-29T22:01:24.557Z,21.81
2022-07-29T22:03:52.438Z,21.74
2022-07-29T22:06:21.577Z,21.72
2022-07-29T22:08:49.150Z,21.68
2022-07-29T22:11:18.305Z,21.60
2022-07-29T22:13:48.249Z,21.64
2022-07-29T22:16:16.231Z,21.54
2022-07-29T22:18:46.973Z,21.49
2022-07-29T22:23:43.113Z,21.40
2022-07-29T22:26:11.185Z,21.29
2022-07-29T22:28:38.856Z,21.23
2022-07-29T22:31:08.270Z,21.17
2022-07-29T22:33:35.918Z,21.17
2022-07-29T22:36:04.218Z,21.12
2022-07-29T22:38:33.966Z,21.01
2022-07-29T22:41:01.720Z,21.03
2022-07-29T22:43:31.077Z,20.99
2022-07-29T22:45:59.159Z,20.95
2022-07-29T22:48:27.373Z,21.00
2022-07-29T22:50:54.935Z,21.03
2022-07-29T22:53:22.997Z,20.96
2022-07-29T22:55:51.054Z,20.99
2022-07-29T22:58:18.615Z,20.95
2022-07-29T23:00:46.331Z,20.90
2022-07-29T23:03:14.288Z,20.83
2022-07-29T23:05:42.547Z,20.86
2022-07-29T23:08:12.609Z,20.84
2022-07-29T23:10:42.512Z,20.87
2022-07-29T23:13:10.313Z,20.82
2022-07-29T23:15:37.975Z,20.84
2022-07-29T23:18:05.563Z,20.77
2022-07-29T23:20:33.956Z,20.74
2022-07-29T23:23:04.329Z,20.68
2022-07-29T23:25:34.582Z,20.70
2022-07-29T23:28:02.575Z,20.80
2022-07-29T23:30:30.315Z,20.80
2022-07-29T23:32:58.176Z,20.77
2022-07-29T23:35:28.590Z,20.79
2022-07-29T23:37:56.702Z,20.72
2022-07-29T23:40:24.497Z,20.71
2022-07-29T23:42:52.109Z,20.70
2022-07-29T23:45:22.596Z,20.72
2022-07-29T23:48:10.193Z,20.65
2022-07-29T23:50:37.881Z,20.65
2022-07-29T23:53:05.540Z,20.65
2022-07-29T23:55:36.959Z,20.63
2022-07-29T23:58:08.658Z,20.61
